sensor_id;sensor_type;location;lat;lon;timestamp;pressure;altitude;pressure_sealevel;temperature;humidity
45541;BME280;31265;49.680;8.608;2023-04-10T00:00:10;101175.25;;;4.44;100.00
45541;BME280;31265;49.680;8.608;2023-04-10T00:02:41;101175.78;;;4.43;100.00
45541;BME280;31265;49.680;8.608;2023-04-10T00:05:11;101179.75;;;4.42;100.00
45541;BME280;31265;49.680;8.608;2023-04-10T00:07:39;101190.75;;;4.42;100.00
45541;BME280;31265;49.680;8.608;2023-04-10T00:10:08;101186.25;;;4.39;100.00
45541;BME280;31265;49.680;8.608;2023-04-10T00:12:37;101194.72;;;4.35;100.00
45541;BME280;31265;49.680;8.608;2023-04-10T00:15:08;101195.00;;;4.26;100.00
45541;BME280;31265;49.680;8.608;2023-04-10T00:17:37;101193.94;;;4.18;100.00
45541;BME280;31265;49.680;8.608;2023-04-10T00:20:07;101200.19;;;4.07;100.00
45541;BME280;31265;49.680;8.608;2023-04-10T00:22:35;101200.66;;;4.05;100.00
45541;BME280;31265;49.680;8.608;2023-04-10T00:25:04;101205.16;;;4.03;100.00
45541;BME280;31265;49.680;8.608;2023-04-10T00:27:33;101204.88;;;3.95;100.00
45541;BME280;31265;49.680;8.608;2023-04-10T00:30:02;101195.38;;;3.91;100.00
45541;BME280;31265;49.680;8.608;2023-04-10T00:32:31;101206.88;;;3.89;100.00
45541;BME280;31265;49.680;8.608;2023-04-10T00:35:00;101199.63;;;3.86;100.00
45541;BME280;31265;49.680;8.608;2023-04-10T00:37:28;101210.84;;;3.82;100.00
45541;BME280;31265;49.680;8.608;2023-04-10T00:39:57;101204.34;;;3.80;100.00
45541;BME280;31265;49.680;8.608;2023-04-10T00:42:26;101205.06;;;3.80;100.00
45541;BME280;31265;49.680;8.608;2023-04-10T00:44:54;101211.81;;;3.79;100.00
45541;BME280;31265;49.680;8.608;2023-04-10T00:47:26;101211.56;;;3.77;100.00
45541;BME280;31265;49.680;8.608;2023-04-10T00:49:56;101211.28;;;3.75;100.00
45541;BME280;31265;49.680;8.608;2023-04-10T00:52:27;101198.81;;;3.74;100.00
45541;BME280;31265;49.680;8.608;2023-04-10T00:54:55;101198.81;;;3.69;100.00
45541;BME280;31265;49.680;8.608;2023-04-10T00:57:24;101194.28;;;3.65;100.00
45541;BME280;31265;49.680;8.608;2023-04-10T00:59:57;101191.78;;;3.62;100.00
45541;BME280;31265;49.680;8.608;2023-04-10T01:02:27;101184.03;;;3.60;100.00
45541;BME280;31265;49.680;8.608;2023-04-10T01:05:02;101190.06;;;3.64;100.00
45541;BME280;31265;49.680;8.608;2023-04-10T01:07:40;101183.13;;;3.80;100.00
45541;BME280;31265;49.680;8.608;2023-04-10T01:10:14;101187.66;;;3.89;100.00
45541;BME280;31265;49.680;8.608;2023-04-10T01:12:52;101189.66;;;3.94;100.00
45541;BME280;31265;49.680;8.608;2023-04-10T01:15:26;101188.19;;;3.99;100.00
45541;BME280;31265;49.680;8.608;2023-04-10T01:17:58;101184.44;;;4.02;100.00
45541;BME280;31265;49.680;8.608;2023-04-10T01:20:34;101185.00;;;4.23;100.00
45541;BME280;31265;49.680;8.608;2023-04-10T01:26:15;101198.44;;;4.15;100.00
45541;BME280;31265;49.680;8.608;2023-04-10T01:28:56;101202.19;;;4.06;100.00
45541;BME280;31265;49.680;8.608;2023-04-10T01:31:35;101202.66;;;4.05;100.00
45541;BME280;31265;49.680;8.608;2023-04-10T01:34:08;101206.66;;;4.04;100.00
45541;BME280;31265;49.680;8.608;2023-04-10T01:36:44;101207.66;;;4.01;100.00
45541;BME280;31265;49.680;8.608;2023-04-10T01:39:14;101212.63;;;3.97;100.00
45541;BME280;31265;49.680;8.608;2023-04-10T01:41:45;101213.13;;;3.95;100.00
45541;BME280;31265;49.680;8.608;2023-04-10T01:44:20;101209.16;;;3.96;100.00
45541;BME280;31265;49.680;8.608;2023-04-10T01:46:51;101209.69;;;4.06;100.00
45541;BME280;31265;49.680;8.608;2023-04-10T01:49:23;101210.41;;;4.06;100.00
45541;BME280;31265;49.680;8.608;2023-04-10T01:52:00;101213.16;;;4.01;100.00
45541;BME280;31265;49.680;8.608;2023-04-10T01:54:30;101205.63;;;3.90;100.00
45541;BME280;31265;49.680;8.608;2023-04-10T01:57:01;101206.34;;;3.85;100.00
45541;BME280;31265;49.680;8.608;2023-04-10T01:59:41;101196.84;;;3.80;100.00
45541;BME280;31265;49.680;8.608;2023-04-10T02:02:11;101193.56;;;3.71;100.00
45541;BME280;31265;49.680;8.608;2023-04-10T02:04:39;101192.78;;;3.64;100.00
45541;BME280;31265;49.680;8.608;2023-04-10T02:07:15;101190.03;;;3.59;100.00
45541;BME280;31265;49.680;8.608;2023-04-10T02:09:51;101184.50;;;3.53;100.00
45541;BME280;31265;49.680;8.608;2023-04-10T02:12:28;101185.00;;;3.52;100.00
45541;BME280;31265;49.680;8.608;2023-04-10T02:15:00;101179.00;;;3.48;100.00
45541;BME280;31265;49.680;8.608;2023-04-10T02:17:32;101179.25;;;3.44;100.00
45541;BME280;31265;49.680;8.608;2023-04-10T02:20:01;101167.75;;;3.40;100.00
45541;BME280;31265;49.680;8.608;2023-04-10T02:22:30;101170.47;;;3.40;100.00
45541;BME280;31265;49.680;8.608;2023-04-10T02:24:59;101172.78;;;3.53;100.00
45541;BME280;31265;49.680;8.608;2023-04-10T02:27:32;101164.81;;;3.60;100.00
45541;BME280;31265;49.680;8.608;2023-04-10T02:30:03;101160.31;;;3.57;100.00
45541;BME280;31265;49.680;8.608;2023-04-10T02:32:35;101161.31;;;3.54;100.00
45541;BME280;31265;49.680;8.608;2023-04-10T02:35:09;101155.03;;;3.48;100.00
45541;BME280;31265;49.680;8.608;2023-04-10T02:37:37;101146.53;;;3.40;100.00
45541;BME280;31265;49.680;8.608;2023-04-10T02:40:08;101148.50;;;3.34;100.00
45541;BME280;31265;49.680;8.608;2023-04-10T02:42:46;101149.75;;;3.33;100.00
45541;BME280;31265;49.680;8.608;2023-04-10T02:45:15;101148.78;;;3.36;100.00
45541;BME280;31265;49.680;8.608;2023-04-10T02:47:44;101148.53;;;3.40;100.00
45541;BME280;31265;49.680;8.608;2023-04-10T02:50:12;101146.53;;;3.40;100.00
45541;BME280;31265;49.680;8.608;2023-04-10T02:52:45;101148.78;;;3.36;100.00
45541;BME280;31265;49.680;8.608;2023-04-10T02:55:13;101150.00;;;3.35;100.00
45541;BME280;31265;49.680;8.608;2023-04-10T02:57:42;101145.78;;;3.34;100.00
45541;BME280;31265;49.680;8.608;2023-04-10T03:00:11;101149.47;;;3.31;100.00
45541;BME280;31265;49.680;8.608;2023-04-10T03:03:07;101148.22;;;3.27;100.00
45541;BME280;31265;49.680;8.608;2023-04-10T03:05:46;101145.69;;;3.17;100.00
45541;BME280;31265;49.680;8.608;2023-04-10T03:08:21;101140.47;;;3.25;100.00
45541;BME280;31265;49.680;8.608;2023-04-10T03:10:49;101151.22;;;3.29;100.00
45541;BME280;31265;49.680;8.608;2023-04-10T03:13:20;101151.28;;;3.45;100.00
45541;BME280;31265;49.680;8.608;2023-04-10T03:15:49;101149.06;;;3.50;100.00
45541;BME280;31265;49.680;8.608;2023-04-10T03:18:20;101142.06;;;3.49;100.00
45541;BME280;31265;49.680;8.608;2023-04-10T03:20:51;101148.78;;;3.42;100.00
45541;BME280;31265;49.680;8.608;2023-04-10T03:23:20;101144.75;;;3.32;100.00
45541;BME280;31265;49.680;8.608;2023-04-10T03:25:49;101137.72;;;3.19;100.00
45541;BME280;31265;49.680;8.608;2023-04-10T03:28:24;101128.66;;;3.08;100.00
45541;BME280;31265;49.680;8.608;2023-04-10T03:30:56;101132.41;;;3.05;100.00
45541;BME280;31265;49.680;8.608;2023-04-10T03:33:27;101128.13;;;2.98;100.00
45541;BME280;31265;49.680;8.608;2023-04-10T03:35:55;101121.09;;;2.91;100.00
45541;BME280;31265;49.680;8.608;2023-04-10T03:38:25;101132.78;;;2.86;100.00
45541;BME280;31265;49.680;8.608;2023-04-10T03:40:55;101131.50;;;2.82;100.00
45541;BME280;31265;49.680;8.608;2023-04-10T03:43:28;101115.28;;;2.78;100.00
45541;BME280;31265;49.680;8.608;2023-04-10T03:45:59;101119.75;;;2.75;100.00
45541;BME280;31265;49.680;8.608;2023-04-10T03:48:31;101111.53;;;2.75;100.00
45541;BME280;31265;49.680;8.608;2023-04-10T03:51:01;101116.00;;;2.73;100.00
45541;BME280;31265;49.680;8.608;2023-04-10T03:53:29;101112.25;;;2.70;100.00
45541;BME280;31265;49.680;8.608;2023-04-10T03:56:07;101113.25;;;2.73;100.00
45541;BME280;31265;49.680;8.608;2023-04-10T03:58:36;101119.44;;;2.68;100.00
45541;BME280;31265;49.680;8.608;2023-04-10T04:01:08;101117.47;;;2.68;100.00
45541;BME280;31265;49.680;8.608;2023-04-10T04:03:55;101129.66;;;2.67;100.00
45541;BME280;31265;49.680;8.608;2023-04-10T04:06:55;101127.69;;;2.68;100.00
45541;BME280;31265;49.680;8.608;2023-04-10T04:09:41;101115.47;;;2.69;100.00
45541;BME280;31265;49.680;8.608;2023-04-10T04:12:29;101124.69;;;2.71;100.00
45541;BME280;31265;49.680;8.608;2023-04-10T04:15:16;101127.69;;;2.68;100.00
45541;BME280;31265;49.680;8.608;2023-04-10T04:18:04;101119.66;;;2.64;100.00
45541;BME280;31265;49.680;8.608;2023-04-10T04:20:40;101111.41;;;2.58;100.00
45541;BME280;31265;49.680;8.608;2023-04-10T04:23:19;101115.34;;;2.52;100.00
45541;BME280;31265;49.680;8.608;2023-04-10T04:26:08;101114.13;;;2.53;100.00
45541;BME280;31265;49.680;8.608;2023-04-10T04:28:40;101118.34;;;2.54;100.00
45541;BME280;31265;49.680;8.608;2023-04-10T04:31:18;101118.56;;;2.50;100.00
45541;BME280;31265;49.680;8.608;2023-04-10T04:34:05;101122.78;;;2.46;100.00
45541;BME280;31265;49.680;8.608;2023-04-10T04:37:05;101123.75;;;2.43;100.00
45541;BME280;31265;49.680;8.608;2023-04-10T04:40:04;101118.97;;;2.38;100.00
45541;BME280;31265;49.680;8.608;2023-04-10T04:42:58;101120.69;;;2.35;100.00
45541;BME280;31265;49.680;8.608;2023-04-10T04:45:45;101132.88;;;2.34;100.00
45541;BME280;31265;49.680;8.608;2023-04-10T04:48:33;101130.69;;;2.38;100.00
45541;BME280;31265;49.680;8.608;2023-04-10T04:51:16;101133.94;;;2.42;100.00
45541;BME280;31265;49.680;8.608;2023-04-10T04:53:53;101135.03;;;2.50;100.00
45541;BME280;31265;49.680;8.608;2023-04-10T04:56:45;101138.78;;;2.53;100.00
45541;BME280;31265;49.680;8.608;2023-04-10T04:59:31;101144.81;;;2.63;100.00
45541;BME280;31265;49.680;8.608;2023-04-10T05:02:23;101144.13;;;2.68;100.00
45541;BME280;31265;49.680;8.608;2023-04-10T05:05:04;101141.66;;;2.70;100.00
45541;BME280;31265;49.680;8.608;2023-04-10T05:07:51;101137.66;;;2.71;100.00
45541;BME280;31265;49.680;8.608;2023-04-10T05:10:44;101143.88;;;2.71;100.00
45541;BME280;31265;49.680;8.608;2023-04-10T05:13:33;101143.66;;;2.75;100.00
45541;BME280;31265;49.680;8.608;2023-04-10T05:16:29;101138.69;;;2.79;100.00
45541;BME280;31265;49.680;8.608;2023-04-10T05:19:21;101133.31;;;2.90;100.00
45541;BME280;31265;49.680;8.608;2023-04-10T05:22:20;101133.13;;;2.99;100.00
45541;BME280;31265;49.680;8.608;2023-04-10T05:24:53;101139.91;;;3.10;100.00
45541;BME280;31265;49.680;8.608;2023-04-10T05:27:31;101138.19;;;3.18;100.00
45541;BME280;31265;49.680;8.608;2023-04-10T05:30:19;101137.75;;;3.31;100.00
45541;BME280;31265;49.680;8.608;2023-04-10T05:33:08;101138.50;;;3.31;100.00
45541;BME280;31265;49.680;8.608;2023-04-10T05:36:01;101137.56;;;3.40;100.00
45541;BME280;31265;49.680;8.608;2023-04-10T05:38:54;101141.09;;;3.52;100.00
45541;BME280;31265;49.680;8.608;2023-04-10T05:41:41;101146.63;;;3.63;100.00
45541;BME280;31265;49.680;8.608;2023-04-10T05:44:26;101142.66;;;3.75;100.00
45541;BME280;31265;49.680;8.608;2023-04-10T05:47:00;101142.47;;;3.90;100.00
45541;BME280;31265;49.680;8.608;2023-04-10T05:49:37;101147.00;;;4.04;100.00
45541;BME280;31265;49.680;8.608;2023-04-10T05:52:32;101148.25;;;4.20;100.00
45541;BME280;31265;49.680;8.608;2023-04-10T05:55:31;101150.53;;;4.39;100.00
45541;BME280;31265;49.680;8.608;2023-04-10T05:58:18;101152.53;;;4.61;100.00
45541;BME280;31265;49.680;8.608;2023-04-10T06:01:08;101143.53;;;4.83;100.00
45541;BME280;31265;49.680;8.608;2023-04-10T06:03:43;101145.72;;;5.07;100.00
45541;BME280;31265;49.680;8.608;2023-04-10T06:06:19;101150.13;;;5.38;100.00
45541;BME280;31265;49.680;8.608;2023-04-10T06:08:47;101150.78;;;5.67;100.00
45541;BME280;31265;49.680;8.608;2023-04-10T06:11:18;101152.16;;;5.96;100.00
45541;BME280;31265;49.680;8.608;2023-04-10T06:13:51;101149.19;;;6.30;100.00
45541;BME280;31265;49.680;8.608;2023-04-10T06:16:26;101137.66;;;6.61;100.00
45541;BME280;31265;49.680;8.608;2023-04-10T06:18:54;101134.63;;;6.89;100.00
45541;BME280;31265;49.680;8.608;2023-04-10T06:21:22;101138.31;;;7.22;100.00
45541;BME280;31265;49.680;8.608;2023-04-10T06:23:56;101140.16;;;7.58;100.00
45541;BME280;31265;49.680;8.608;2023-04-10T06:26:24;101135.44;;;7.90;100.00
45541;BME280;31265;49.680;8.608;2023-04-10T06:28:53;101131.00;;;8.19;100.00
45541;BME280;31265;49.680;8.608;2023-04-10T06:31:23;101132.59;;;8.47;100.00
45541;BME280;31265;49.680;8.608;2023-04-10T06:33:53;101125.22;;;8.82;100.00
45541;BME280;31265;49.680;8.608;2023-04-10T06:36:21;101119.28;;;9.18;100.00
45541;BME280;31265;49.680;8.608;2023-04-10T06:38:59;101121.91;;;9.37;100.00
45541;BME280;31265;49.680;8.608;2023-04-10T06:41:29;101121.97;;;9.71;100.00
45541;BME280;31265;49.680;8.608;2023-04-10T06:44:06;101132.09;;;10.03;100.00
45541;BME280;31265;49.680;8.608;2023-04-10T06:46:34;101130.31;;;10.26;100.00
45541;BME280;31265;49.680;8.608;2023-04-10T06:49:04;101130.00;;;10.51;100.00
45541;BME280;31265;49.680;8.608;2023-04-10T06:51:33;101127.19;;;10.72;100.00
45541;BME280;31265;49.680;8.608;2023-04-10T06:54:01;101132.75;;;11.01;100.00
45541;BME280;31265;49.680;8.608;2023-04-10T06:56:31;101132.16;;;11.31;100.00
45541;BME280;31265;49.680;8.608;2023-04-10T06:58:59;101130.00;;;11.45;100.00
45541;BME280;31265;49.680;8.608;2023-04-10T07:01:28;101124.53;;;11.68;100.00
45541;BME280;31265;49.680;8.608;2023-04-10T07:03:57;101127.06;;;11.94;100.00
45541;BME280;31265;49.680;8.608;2023-04-10T07:06:26;101131.16;;;12.09;98.91
45541;BME280;31265;49.680;8.608;2023-04-10T07:08:57;101132.09;;;12.19;87.37
45541;BME280;31265;49.680;8.608;2023-04-10T07:11:26;101129.34;;;12.34;83.39
45541;BME280;31265;49.680;8.608;2023-04-10T07:13:54;101132.66;;;12.63;82.14
45541;BME280;31265;49.680;8.608;2023-04-10T07:16:26;101132.63;;;13.02;84.63
45541;BME280;31265;49.680;8.608;2023-04-10T07:18:55;101126.97;;;13.25;82.17
45541;BME280;31265;49.680;8.608;2023-04-10T07:21:24;101119.91;;;13.39;76.35
45541;BME280;31265;49.680;8.608;2023-04-10T07:23:57;101126.28;;;13.17;70.76
45541;BME280;31265;49.680;8.608;2023-04-10T07:26:25;101119.97;;;13.64;75.34
45541;BME280;31265;49.680;8.608;2023-04-10T07:28:55;101125.50;;;13.72;72.06
45541;BME280;31265;49.680;8.608;2023-04-10T07:31:23;101114.13;;;13.45;72.48
45541;BME280;31265;49.680;8.608;2023-04-10T07:33:52;101119.94;;;13.72;70.56
45541;BME280;31265;49.680;8.608;2023-04-10T07:36:20;101112.84;;;13.79;70.98
45541;BME280;31265;49.680;8.608;2023-04-10T07:38:48;101113.38;;;13.85;68.64
45541;BME280;31265;49.680;8.608;2023-04-10T07:41:21;101106.31;;;13.84;65.81
45541;BME280;31265;49.680;8.608;2023-04-10T07:43:50;101107.78;;;14.17;65.95
45541;BME280;31265;49.680;8.608;2023-04-10T07:46:19;101104.22;;;14.42;65.88
45541;BME280;31265;49.680;8.608;2023-04-10T07:48:48;101101.72;;;14.54;63.40
45541;BME280;31265;49.680;8.608;2023-04-10T07:51:17;101103.44;;;14.49;64.35
45541;BME280;31265;49.680;8.608;2023-04-10T07:53:47;101106.19;;;14.74;61.05
45541;BME280;31265;49.680;8.608;2023-04-10T07:56:16;101094.94;;;14.82;61.11
45541;BME280;31265;49.680;8.608;2023-04-10T07:58:46;101098.66;;;14.84;63.02
45541;BME280;31265;49.680;8.608;2023-04-10T08:01:14;101097.72;;;14.65;64.83
45541;BME280;31265;49.680;8.608;2023-04-10T08:03:44;101096.69;;;14.52;57.53
45541;BME280;31265;49.680;8.608;2023-04-10T08:06:16;101099.56;;;15.04;59.97
45541;BME280;31265;49.680;8.608;2023-04-10T08:08:45;101096.91;;;15.24;56.57
45541;BME280;31265;49.680;8.608;2023-04-10T08:11:25;101098.25;;;15.50;55.00
45541;BME280;31265;49.680;8.608;2023-04-10T08:13:56;101105.06;;;15.74;52.10
45541;BME280;31265;49.680;8.608;2023-04-10T08:16:29;101092.56;;;15.58;53.93
45541;BME280;31265;49.680;8.608;2023-04-10T08:18:58;101095.25;;;15.83;52.15
45541;BME280;31265;49.680;8.608;2023-04-10T08:21:28;101086.97;;;15.75;54.72
45541;BME280;31265;49.680;8.608;2023-04-10T08:23:59;101090.59;;;15.95;51.12
45541;BME280;31265;49.680;8.608;2023-04-10T08:26:28;101084.16;;;15.58;50.62
45541;BME280;31265;49.680;8.608;2023-04-10T08:28:58;101080.34;;;16.07;51.58
45541;BME280;31265;49.680;8.608;2023-04-10T08:31:28;101076.72;;;15.87;50.72
45541;BME280;31265;49.680;8.608;2023-04-10T08:33:58;101083.28;;;16.09;51.86
45541;BME280;31265;49.680;8.608;2023-04-10T08:36:31;101071.59;;;16.50;50.35
45541;BME280;31265;49.680;8.608;2023-04-10T08:38:59;101067.50;;;16.70;47.96
45541;BME280;31265;49.680;8.608;2023-04-10T08:41:32;101076.25;;;16.84;47.33
45541;BME280;31265;49.680;8.608;2023-04-10T08:44:02;101063.56;;;16.83;47.58
45541;BME280;31265;49.680;8.608;2023-04-10T08:46:35;101065.63;;;17.02;48.00
45541;BME280;31265;49.680;8.608;2023-04-10T08:49:04;101053.38;;;16.78;47.91
45541;BME280;31265;49.680;8.608;2023-04-10T08:51:35;101049.34;;;16.71;47.38
45541;BME280;31265;49.680;8.608;2023-04-10T08:54:10;101054.25;;;17.00;48.59
45541;BME280;31265;49.680;8.608;2023-04-10T08:56:48;101048.81;;;17.02;45.30
45541;BME280;31265;49.680;8.608;2023-04-10T08:59:19;101052.34;;;17.12;47.15
45541;BME280;31265;49.680;8.608;2023-04-10T09:01:48;101053.91;;;17.45;45.77
45541;BME280;31265;49.680;8.608;2023-04-10T09:04:17;101051.03;;;17.64;44.18
45541;BME280;31265;49.680;8.608;2023-04-10T09:06:46;101046.56;;;18.12;44.08
45541;BME280;31265;49.680;8.608;2023-04-10T09:09:14;101037.50;;;17.92;43.00
45541;BME280;31265;49.680;8.608;2023-04-10T09:12:06;101042.44;;;17.81;42.37
45541;BME280;31265;49.680;8.608;2023-04-10T09:14:36;101038.88;;;18.12;43.81
45541;BME280;31265;49.680;8.608;2023-04-10T09:17:15;101024.88;;;17.81;43.09
45541;BME280;31265;49.680;8.608;2023-04-10T09:19:44;101031.22;;;18.13;43.11
45541;BME280;31265;49.680;8.608;2023-04-10T09:22:14;101015.38;;;17.86;43.78
45541;BME280;31265;49.680;8.608;2023-04-10T09:24:45;101017.63;;;17.27;43.32
45541;BME280;31265;49.680;8.608;2023-04-10T09:27:27;101012.84;;;17.90;45.05
45541;BME280;31265;49.680;8.608;2023-04-10T09:29:59;101012.78;;;18.00;44.60
45541;BME280;31265;49.680;8.608;2023-04-10T09:32:35;101003.88;;;18.35;40.84
45541;BME280;31265;49.680;8.608;2023-04-10T09:35:05;101005.47;;;18.38;41.15
45541;BME280;31265;49.680;8.608;2023-04-10T09:37:35;101003.50;;;19.28;40.81
45541;BME280;31265;49.680;8.608;2023-04-10T09:40:05;100997.34;;;19.89;38.35
45541;BME280;31265;49.680;8.608;2023-04-10T09:42:49;101003.38;;;19.15;37.32
45541;BME280;31265;49.680;8.608;2023-04-10T09:45:19;100991.31;;;18.36;39.14
45541;BME280;31265;49.680;8.608;2023-04-10T09:48:03;100993.34;;;18.57;40.10
45541;BME280;31265;49.680;8.608;2023-04-10T09:50:34;100984.03;;;17.90;38.53
45541;BME280;31265;49.680;8.608;2023-04-10T09:53:06;100975.69;;;18.66;40.49
45541;BME280;31265;49.680;8.608;2023-04-10T09:55:37;100970.38;;;18.05;38.53
45541;BME280;31265;49.680;8.608;2023-04-10T09:58:06;100962.78;;;17.87;40.24
45541;BME280;31265;49.680;8.608;2023-04-10T10:00:39;100966.28;;;18.18;41.11
45541;BME280;31265;49.680;8.608;2023-04-10T10:03:09;100962.88;;;17.98;38.69
45541;BME280;31265;49.680;8.608;2023-04-10T10:05:41;100951.03;;;18.00;39.84
45541;BME280;31265;49.680;8.608;2023-04-10T10:08:10;100954.97;;;17.85;40.39
45541;BME280;31265;49.680;8.608;2023-04-10T10:10:44;100943.47;;;17.40;40.30
45541;BME280;31265;49.680;8.608;2023-04-10T10:13:23;100947.31;;;17.76;40.91
45541;BME280;31265;49.680;8.608;2023-04-10T10:15:58;100948.34;;;18.45;40.95
45541;BME280;31265;49.680;8.608;2023-04-10T10:18:37;100942.94;;;19.04;38.81
45541;BME280;31265;49.680;8.608;2023-04-10T10:21:07;100944.53;;;19.19;39.03
45541;BME280;31265;49.680;8.608;2023-04-10T10:23:39;100936.34;;;18.99;41.72
45541;BME280;31265;49.680;8.608;2023-04-10T10:26:11;100949.09;;;19.24;39.39
45541;BME280;31265;49.680;8.608;2023-04-10T10:28:45;100945.69;;;19.72;38.42
45541;BME280;31265;49.680;8.608;2023-04-10T10:31:20;100938.03;;;18.93;39.57
45541;BME280;31265;49.680;8.608;2023-04-10T10:33:52;100933.44;;;19.09;38.18
45541;BME280;31265;49.680;8.608;2023-04-10T10:36:22;100930.13;;;19.36;39.45
45541;BME280;31265;49.680;8.608;2023-04-10T10:38:57;100924.22;;;20.40;37.23
45541;BME280;31265;49.680;8.608;2023-04-10T10:41:32;100928.47;;;20.15;37.84
45541;BME280;31265;49.680;8.608;2023-04-10T10:44:13;100919.31;;;20.92;36.28
45541;BME280;31265;49.680;8.608;2023-04-10T10:46:50;100917.97;;;20.93;37.86
45541;BME280;31265;49.680;8.608;2023-04-10T10:49:19;100907.97;;;20.52;37.97
45541;BME280;31265;49.680;8.608;2023-04-10T10:51:51;100904.09;;;20.57;36.75
45541;BME280;31265;49.680;8.608;2023-04-10T10:54:30;100897.97;;;21.28;36.85
45541;BME280;31265;49.680;8.608;2023-04-10T10:56:59;100899.25;;;21.39;36.21
45541;BME280;31265;49.680;8.608;2023-04-10T10:59:53;100887.69;;;20.93;36.45
45541;BME280;31265;49.680;8.608;2023-04-10T11:02:23;100893.81;;;21.29;35.34
45541;BME280;31265;49.680;8.608;2023-04-10T11:04:52;100893.78;;;21.71;34.14
45541;BME280;31265;49.680;8.608;2023-04-10T11:08:06;100887.34;;;21.54;34.33
45541;BME280;31265;49.680;8.608;2023-04-10T11:11:02;100891.41;;;20.84;34.95
45541;BME280;31265;49.680;8.608;2023-04-10T11:13:34;100884.19;;;21.34;34.53
45541;BME280;31265;49.680;8.608;2023-04-10T11:16:05;100877.41;;;21.53;35.75
45541;BME280;31265;49.680;8.608;2023-04-10T11:19:02;100869.66;;;21.54;37.11
45541;BME280;31265;49.680;8.608;2023-04-10T11:22:01;100871.13;;;21.27;37.14
45541;BME280;31265;49.680;8.608;2023-04-10T11:24:54;100861.59;;;21.34;35.22
45541;BME280;31265;49.680;8.608;2023-04-10T11:27:43;100855.84;;;21.18;35.12
45541;BME280;31265;49.680;8.608;2023-04-10T11:30:32;100841.13;;;20.67;38.47
45541;BME280;31265;49.680;8.608;2023-04-10T11:33:01;100841.25;;;20.69;37.16
45541;BME280;31265;49.680;8.608;2023-04-10T11:35:33;100831.47;;;20.83;36.49
45541;BME280;31265;49.680;8.608;2023-04-10T11:38:19;100824.50;;;21.12;35.40
45541;BME280;31265;49.680;8.608;2023-04-10T11:40:57;100828.03;;;20.99;37.44
45541;BME280;31265;49.680;8.608;2023-04-10T11:43:27;100823.75;;;20.98;34.72
45541;BME280;31265;49.680;8.608;2023-04-10T11:46:01;100822.09;;;21.34;35.22
45541;BME280;31265;49.680;8.608;2023-04-10T11:48:29;100821.03;;;21.69;34.40
45541;BME280;31265;49.680;8.608;2023-04-10T11:51:05;100816.66;;;21.24;34.63
45541;BME280;31265;49.680;8.608;2023-04-10T11:53:35;100807.13;;;21.04;36.44
45541;BME280;31265;49.680;8.608;2023-04-10T11:56:13;100814.38;;;21.07;35.52
45541;BME280;31265;49.680;8.608;2023-04-10T11:58:44;100805.69;;;19.61;37.44
45541;BME280;31265;49.680;8.608;2023-04-10T12:01:12;100797.47;;;19.77;37.63
45541;BME280;31265;49.680;8.608;2023-04-10T12:03:42;100790.84;;;20.49;35.50
45541;BME280;31265;49.680;8.608;2023-04-10T12:06:17;100785.78;;;20.59;36.77
45541;BME280;31265;49.680;8.608;2023-04-10T12:08:46;100789.53;;;19.73;38.42
45541;BME280;31265;49.680;8.608;2023-04-10T12:11:18;100780.66;;;19.91;36.75
45541;BME280;31265;49.680;8.608;2023-04-10T12:13:51;100793.16;;;20.53;37.10
45541;BME280;31265;49.680;8.608;2023-04-10T12:16:19;100788.84;;;20.91;35.48
45541;BME280;31265;49.680;8.608;2023-04-10T12:18:48;100783.84;;;20.90;36.61
45541;BME280;31265;49.680;8.608;2023-04-10T12:21:21;100770.59;;;20.39;37.22
45541;BME280;31265;49.680;8.608;2023-04-10T12:23:50;100764.16;;;20.50;36.69
45541;BME280;31265;49.680;8.608;2023-04-10T12:26:19;100773.00;;;20.98;36.89
45541;BME280;31265;49.680;8.608;2023-04-10T12:28:50;100764.28;;;20.66;36.38
45541;BME280;31265;49.680;8.608;2023-04-10T12:31:25;100762.53;;;20.08;36.53
45541;BME280;31265;49.680;8.608;2023-04-10T12:33:56;100758.88;;;20.05;37.29
45541;BME280;31265;49.680;8.608;2023-04-10T12:36:28;100762.06;;;19.86;36.00
45541;BME280;31265;49.680;8.608;2023-04-10T12:38:59;100759.69;;;19.68;37.35
45541;BME280;31265;49.680;8.608;2023-04-10T12:41:29;100761.72;;;19.80;35.55
45541;BME280;31265;49.680;8.608;2023-04-10T12:44:08;100752.53;;;20.30;36.12
45541;BME280;31265;49.680;8.608;2023-04-10T12:46:40;100752.59;;;20.32;35.82
45541;BME280;31265;49.680;8.608;2023-04-10T12:49:12;100737.59;;;20.28;35.16
45541;BME280;31265;49.680;8.608;2023-04-10T12:51:47;100732.56;;;20.26;35.45
45541;BME280;31265;49.680;8.608;2023-04-10T12:54:36;100727.34;;;19.95;38.06
45541;BME280;31265;49.680;8.608;2023-04-10T12:57:04;100733.53;;;20.31;35.97
45541;BME280;31265;49.680;8.608;2023-04-10T12:59:33;100729.53;;;20.22;34.35
45541;BME280;31265;49.680;8.608;2023-04-10T13:02:01;100729.69;;;20.38;35.03
45541;BME280;31265;49.680;8.608;2023-04-10T13:04:30;100727.47;;;19.97;34.64
45541;BME280;31265;49.680;8.608;2023-04-10T13:07:00;100720.16;;;20.85;33.48
45541;BME280;31265;49.680;8.608;2023-04-10T13:09:29;100726.25;;;21.22;32.76
45541;BME280;31265;49.680;8.608;2023-04-10T13:11:57;100712.75;;;21.35;33.81
45541;BME280;31265;49.680;8.608;2023-04-10T13:14:25;100712.91;;;21.09;34.25
45541;BME280;31265;49.680;8.608;2023-04-10T13:16:54;100709.59;;;20.85;34.58
45541;BME280;31265;49.680;8.608;2023-04-10T13:19:22;100707.41;;;21.55;34.30
45541;BME280;31265;49.680;8.608;2023-04-10T13:21:50;100702.44;;;21.69;34.15
45541;BME280;31265;49.680;8.608;2023-04-10T13:24:20;100698.72;;;21.51;33.29
45541;BME280;31265;49.680;8.608;2023-04-10T13:26:49;100689.97;;;21.44;32.90
45541;BME280;31265;49.680;8.608;2023-04-10T13:29:17;100688.25;;;21.10;34.63